createdAt,value
2022-08-17T00:00:43.295Z,74.99
2022-08-17T00:01:38.496Z,74.09
2022-08-17T00:02:32.694Z,74.59
2022-08-17T00:03:32.617Z,74.99
2022-08-17T00:04:31.556Z,74.99
2022-08-17T00:05:31.574Z,75.09
2022-08-17T00:06:31.546Z,74.69
2022-08-17T00:07:31.535Z,74.89
2022-08-17T00:08:31.547Z,75.19
2022-08-17T00:09:31.512Z,75.49
2022-08-17T00:10:32.422Z,75.19
2022-08-17T00:11:31.511Z,75.79
2022-08-17T00:12:43.098Z,76.19
2022-08-17T00:13:32.435Z,75.99
2022-08-17T00:14:31.455Z,76.29
2022-08-17T00:15:31.408Z,75.69
2022-08-17T00:16:56.345Z,75.69
2022-08-17T00:17:32.418Z,76.09
2022-08-17T00:19:06.512Z,76.49
2022-08-17T00:19:32.372Z,76.69
2022-08-17T00:20:34.803Z,75.59
2022-08-17T00:22:29.444Z,75.49
2022-08-17T00:22:36.475Z,75.79
2022-08-17T00:23:31.306Z,75.49
2022-08-17T00:24:31.306Z,75.79
2022-08-17T00:25:31.316Z,74.99
2022-08-17T00:26:43.755Z,74.89
2022-08-17T00:27:32.315Z,75.09
2022-08-17T00:28:31.242Z,75.29
2022-08-17T00:29:31.249Z,75.39
2022-08-17T00:30:31.210Z,74.99
2022-08-17T00:31:32.192Z,74.59
2022-08-17T00:33:15.898Z,74.99
2022-08-17T00:33:32.185Z,75.49
2022-08-17T00:34:31.169Z,75.29
2022-08-17T00:35:31.140Z,75.39
2022-08-17T00:36:31.184Z,75.59
2022-08-17T00:37:31.112Z,75.59
2022-08-17T00:38:31.097Z,75.69
2022-08-17T00:39:31.138Z,76.29
2022-08-17T00:40:39.778Z,76.43
2022-08-17T00:41:32.113Z,77.13
2022-08-17T00:42:31.433Z,76.93
2022-08-17T00:43:31.043Z,76.73
2022-08-17T00:44:31.250Z,76.33
2022-08-17T00:47:20.862Z,76.33
2022-08-17T00:48:29.454Z,75.73
2022-08-17T00:49:21.720Z,75.63
2022-08-17T00:50:20.689Z,75.59
2022-08-17T00:51:20.663Z,75.29
2022-08-17T00:52:20.724Z,75.29
2022-08-17T00:53:20.654Z,75.19
2022-08-17T00:54:20.658Z,75.59
2022-08-17T00:55:20.619Z,75.29
2022-08-17T00:56:20.634Z,75.29
2022-08-17T00:57:20.617Z,75.29
2022-08-17T00:58:30.432Z,75.29
2022-08-17T00:59:21.581Z,75.19
2022-08-17T01:00:20.557Z,75.29
2022-08-17T01:01:21.279Z,75.29
2022-08-17T01:02:20.531Z,75.49
2022-08-17T01:03:20.530Z,75.49
2022-08-17T01:04:20.505Z,75.52
2022-08-17T01:05:20.890Z,75.89
2022-08-17T01:06:20.480Z,75.83
2022-08-17T01:07:20.453Z,76.03
2022-08-17T01:08:20.471Z,75.83
2022-08-17T01:09:20.449Z,75.02
2022-08-17T01:10:58.995Z,75.69
2022-08-17T01:11:21.460Z,75.99
2022-08-17T01:12:20.422Z,76.63
2022-08-17T01:13:20.422Z,76.23
2022-08-17T01:14:20.415Z,76.73
2022-08-17T01:15:20.337Z,76.73
2022-08-17T01:16:20.382Z,76.43
2022-08-17T01:17:20.327Z,76.43
2022-08-17T01:18:20.323Z,76.23
2022-08-17T01:19:20.309Z,76.53
2022-08-17T01:20:20.342Z,76.43
2022-08-17T01:21:20.298Z,76.63
2022-08-17T01:22:20.258Z,76.67
2022-08-17T01:23:20.818Z,76.37
2022-08-17T01:24:20.219Z,76.23
2022-08-17T01:25:20.224Z,76.13
2022-08-17T01:26:20.268Z,76.33
2022-08-17T01:27:20.675Z,76.23
2022-08-17T01:28:33.643Z,76.23
2022-08-17T01:29:21.171Z,76.23
2022-08-17T01:30:57.437Z,76.03
2022-08-17T01:31:21.152Z,75.93
2022-08-17T01:32:20.185Z,75.63
2022-08-17T01:33:20.109Z,75.73
2022-08-17T01:34:20.138Z,75.83
2022-08-17T01:35:20.114Z,75.73
2022-08-17T01:36:20.069Z,75.73
2022-08-17T01:37:20.057Z,75.73
2022-08-17T01:38:26.504Z,75.73
2022-08-17T01:39:21.049Z,75.43
2022-08-17T01:40:20.080Z,75.63
2022-08-17T01:41:20.013Z,75.63
2022-08-17T01:42:20.008Z,75.63
2022-08-17T01:43:20.005Z,75.43
2022-08-17T01:44:19.981Z,75.63
2022-08-17T01:45:19.945Z,75.43
2022-08-17T01:46:19.968Z,75.52
2022-08-17T01:47:20.081Z,75.52
2022-08-17T01:48:19.904Z,75.43
2022-08-17T01:49:19.888Z,75.52
2022-08-17T01:50:19.926Z,75.63
2022-08-17T01:51:19.889Z,75.33
2022-08-17T01:52:19.865Z,75.43
2022-08-17T01:53:19.849Z,75.43
2022-08-17T01:54:19.870Z,75.43
2022-08-17T01:55:22.431Z,75.52
2022-08-17T01:56:19.797Z,75.63
2022-08-17T01:57:19.806Z,75.73
2022-08-17T01:58:19.838Z,75.63
2022-08-17T01:59:19.773Z,75.83
2022-08-17T02:00:19.752Z,75.93
2022-08-17T02:01:19.785Z,75.73
2022-08-17T02:02:30.425Z,75.83
2022-08-17T02:03:20.693Z,75.73
2022-08-17T02:04:19.749Z,75.93
2022-08-17T02:05:19.694Z,75.96
2022-08-17T02:06:27.958Z,75.83
2022-08-17T02:07:20.654Z,75.83
2022-08-17T02:08:20.637Z,75.63
2022-08-17T02:09:22.296Z,75.73
2022-08-17T02:10:20.303Z,75.63
2022-08-17T02:11:19.631Z,75.93
2022-08-17T02:12:39.135Z,75.73
2022-08-17T02:13:20.597Z,75.96
2022-08-17T02:14:19.598Z,75.87
2022-08-17T02:15:19.539Z,75.87
2022-08-17T02:16:19.528Z,75.87
2022-08-17T02:17:19.557Z,75.76
2022-08-17T02:18:19.506Z,75.96
2022-08-17T02:19:19.501Z,75.96
2022-08-17T02:20:41.237Z,75.96
2022-08-17T02:21:20.480Z,76.06
2022-08-17T02:22:19.513Z,76.06
2022-08-17T02:23:19.462Z,76.26
2022-08-17T02:24:58.569Z,76.26
2022-08-17T02:25:20.452Z,76.46
2022-08-17T02:26:26.243Z,76.37
2022-08-17T02:27:20.425Z,76.46
2022-08-17T02:28:19.365Z,76.37
2022-08-17T02:29:19.350Z,76.56
2022-08-17T02:30:59.985Z,76.67
2022-08-17T02:31:20.374Z,76.67
2022-08-17T02:32:20.932Z,76.87
2022-08-17T02:33:20.368Z,76.87
2022-08-17T02:34:19.283Z,77.10
2022-08-17T02:35:19.285Z,77.10
2022-08-17T02:36:21.142Z,77.20
2022-08-17T02:37:19.251Z,77.20
2022-08-17T02:38:19.236Z,77.20
2022-08-17T02:39:19.236Z,77.30
2022-08-17T02:40:19.227Z,77.30
2022-08-17T02:41:20.268Z,77.60
2022-08-17T02:42:19.188Z,77.70
2022-08-17T02:43:19.182Z,77.80
2022-08-17T02:44:39.981Z,77.91
2022-08-17T02:45:20.150Z,78.04
2022-08-17T02:46:19.156Z,77.94
2022-08-17T02:47:19.128Z,78.04
2022-08-17T02:48:29.697Z,78.04
2022-08-17T02:49:20.080Z,78.04
2022-08-17T02:50:19.113Z,78.14
2022-08-17T02:51:19.070Z,78.04
2022-08-17T02:52:19.063Z,78.04
2022-08-17T02:53:20.027Z,78.04
2022-08-17T02:54:41.648Z,78.14
2022-08-17T02:55:20.057Z,78.24
2022-08-17T02:56:18.988Z,78.34
2022-08-17T02:57:18.970Z,78.44
2022-08-17T02:58:18.958Z,78.54
2022-08-17T02:59:19.966Z,78.64
2022-08-17T03:00:18.934Z,78.74
2022-08-17T03:01:18.990Z,78.74
2022-08-17T03:02:18.947Z,78.88
2022-08-17T03:03:18.919Z,79.08
2022-08-17T03:04:18.946Z,79.08
2022-08-17T03:05:18.875Z,79.18
2022-08-17T03:06:18.926Z,79.28
2022-08-17T03:07:18.837Z,79.38
2022-08-17T03:08:18.845Z,79.48
2022-08-17T03:09:18.842Z,79.58
2022-08-17T03:10:18.808Z,79.68
2022-08-17T03:11:18.786Z,79.68
2022-08-17T03:12:18.775Z,79.98
2022-08-17T03:13:18.761Z,79.78
2022-08-17T03:14:18.771Z,79.78
2022-08-17T03:15:19.739Z,80.18
2022-08-17T03:16:18.757Z,80.58
2022-08-17T03:17:18.733Z,80.08
2022-08-17T03:18:21.939Z,80.02
2022-08-17T03:19:19.692Z,79.98
2022-08-17T03:20:18.684Z,80.08
2022-08-17T03:21:18.659Z,81.09
2022-08-17T03:22:36.854Z,81.02
2022-08-17T03:23:23.769Z,81.02
2022-08-17T03:24:18.640Z,80.82
2022-08-17T03:25:19.620Z,80.82
2022-08-17T03:26:18.612Z,81.73
2022-08-17T03:27:18.573Z,81.76
2022-08-17T03:28:18.557Z,82.17
2022-08-17T03:29:18.547Z,82.37
2022-08-17T03:30:18.573Z,81.56
2022-08-17T03:31:18.542Z,80.82
2022-08-17T03:32:18.539Z,80.72
2022-08-17T03:33:18.499Z,80.92
2022-08-17T03:34:18.477Z,81.42
2022-08-17T03:35:18.451Z,81.52
2022-08-17T03:36:18.456Z,81.12
2022-08-17T03:37:18.459Z,80.72
2022-08-17T03:38:18.414Z,80.72
2022-08-17T03:39:18.410Z,80.62
2022-08-17T03:40:18.391Z,80.52
2022-08-17T03:41:19.391Z,80.52
2022-08-17T03:42:31.291Z,80.42
2022-08-17T03:43:19.398Z,80.42
2022-08-17T03:44:18.355Z,80.42
2022-08-17T03:45:18.333Z,80.32
2022-08-17T03:46:27.775Z,80.52
2022-08-17T03:47:19.402Z,80.82
2022-08-17T03:48:18.367Z,81.02
2022-08-17T03:49:18.288Z,81.12
2022-08-17T03:50:18.274Z,81.73
2022-08-17T03:51:18.396Z,81.56
2022-08-17T03:52:18.339Z,81.26
2022-08-17T03:53:18.301Z,80.72
2022-08-17T03:54:18.202Z,80.32
2022-08-17T03:55:18.208Z,80.12
2022-08-17T03:56:18.188Z,80.02
2022-08-17T03:57:18.184Z,80.02
2022-08-17T03:58:18.181Z,80.12
2022-08-17T03:59:20.811Z,79.98
2022-08-17T04:00:18.168Z,79.78
2022-08-17T04:01:18.341Z,79.58
2022-08-17T04:02:18.157Z,79.58
2022-08-17T04:03:18.115Z,79.68
2022-08-17T04:04:18.167Z,79.58
2022-08-17T04:05:18.141Z,79.68
2022-08-17T04:06:18.089Z,79.58
2022-08-17T04:07:18.093Z,79.58
2022-08-17T04:08:18.036Z,79.58
2022-08-17T04:09:18.059Z,79.68
2022-08-17T04:10:18.070Z,79.68
2022-08-17T04:11:18.077Z,79.68
2022-08-17T04:12:18.163Z,79.68
2022-08-17T04:13:24.926Z,79.82
2022-08-17T04:14:19.020Z,79.92
2022-08-17T04:15:17.976Z,80.02
2022-08-17T04:16:17.968Z,80.02
2022-08-17T04:17:17.982Z,80.02
2022-08-17T04:18:17.962Z,80.12
2022-08-17T04:19:17.930Z,80.22
2022-08-17T04:20:17.912Z,80.12
2022-08-17T04:21:18.036Z,80.22
2022-08-17T04:22:30.647Z,80.12
2022-08-17T04:23:18.947Z,80.12
2022-08-17T04:24:17.941Z,80.22
2022-08-17T04:25:17.811Z,80.12
2022-08-17T04:26:53.981Z,79.92
2022-08-17T04:27:18.993Z,80.02
2022-08-17T04:28:17.904Z,80.02
2022-08-17T04:29:17.860Z,79.92
2022-08-17T04:30:17.794Z,79.92
2022-08-17T04:31:17.792Z,79.92
2022-08-17T04:32:21.751Z,80.12
2022-08-17T04:33:18.687Z,80.12
2022-08-17T04:34:19.570Z,80.12
2022-08-17T04:35:17.744Z,80.12
2022-08-17T04:36:17.772Z,80.12
2022-08-17T04:37:17.759Z,80.12
2022-08-17T04:38:17.710Z,80.22
2022-08-17T04:39:17.662Z,80.22
2022-08-17T04:40:17.715Z,80.12
2022-08-17T04:41:17.616Z,80.22
2022-08-17T04:42:17.628Z,80.22
2022-08-17T04:43:18.845Z,80.32
2022-08-17T04:44:36.824Z,80.52
2022-08-17T04:45:18.634Z,80.62
2022-08-17T04:46:17.586Z,80.72
2022-08-17T04:47:17.551Z,80.62
2022-08-17T04:48:17.615Z,80.62
2022-08-17T04:49:17.550Z,80.72
2022-08-17T04:50:17.530Z,80.72
2022-08-17T04:51:17.557Z,80.82
2022-08-17T04:52:29.775Z,80.82
2022-08-17T04:53:18.580Z,80.72
2022-08-17T04:54:17.435Z,80.72
2022-08-17T04:55:17.457Z,80.72
2022-08-17T04:56:18.154Z,80.82
2022-08-17T04:57:17.424Z,80.72
2022-08-17T04:58:17.361Z,80.72
2022-08-17T04:59:17.468Z,80.72
2022-08-17T05:00:17.312Z,80.62
2022-08-17T05:01:17.355Z,80.52
2022-08-17T05:02:18.361Z,80.28
2022-08-17T05:03:17.346Z,80.08
2022-08-17T05:04:19.943Z,79.68
2022-08-17T05:05:18.264Z,79.58
2022-08-17T05:06:17.274Z,79.48
2022-08-17T05:07:22.549Z,79.48
2022-08-17T05:08:18.257Z,79.68
2022-08-17T05:09:17.331Z,79.68
2022-08-17T05:10:17.289Z,79.68
2022-08-17T05:11:17.288Z,79.48
2022-08-17T05:12:17.170Z,79.58
2022-08-17T05:13:17.159Z,79.44
2022-08-17T05:14:17.185Z,79.34
2022-08-17T05:15:17.161Z,79.34
2022-08-17T05:16:17.134Z,79.34
2022-08-17T05:17:17.158Z,79.34
2022-08-17T05:18:17.086Z,79.44
2022-08-17T05:19:17.113Z,79.14
2022-08-17T05:20:17.109Z,79.34
2022-08-17T05:21:17.076Z,79.34
2022-08-17T05:22:17.015Z,79.24
2022-08-17T05:23:17.018Z,79.24
2022-08-17T05:24:39.837Z,79.14
2022-08-17T05:25:18.026Z,79.14
2022-08-17T05:26:23.167Z,79.14
2022-08-17T05:27:18.839Z,79.04
2022-08-17T05:28:16.968Z,78.84
2022-08-17T05:29:16.968Z,78.74
2022-08-17T05:30:16.907Z,78.84
2022-08-17T05:31:16.929Z,78.74
2022-08-17T05:32:37.236Z,78.94
2022-08-17T05:33:17.909Z,78.74
2022-08-17T05:34:16.988Z,78.80
2022-08-17T05:35:16.850Z,78.91
2022-08-17T05:36:37.861Z,78.70
2022-08-17T05:37:17.825Z,78.70
2022-08-17T05:38:16.890Z,78.70
2022-08-17T05:39:17.429Z,78.70
2022-08-17T05:40:16.818Z,78.70
2022-08-17T05:41:16.801Z,78.70
2022-08-17T05:42:16.948Z,78.70
2022-08-17T05:43:16.770Z,78.70
2022-08-17T05:44:16.865Z,78.70
2022-08-17T05:45:16.806Z,78.41
2022-08-17T05:46:17.737Z,78.20
2022-08-17T05:47:16.747Z,78.17
2022-08-17T05:48:16.689Z,78.06
2022-08-17T05:49:16.683Z,77.97
2022-08-17T05:50:18.339Z,77.76
2022-08-17T05:51:17.674Z,77.86
2022-08-17T05:52:18.898Z,77.47
2022-08-17T05:53:16.613Z,77.17
2022-08-17T05:54:16.615Z,76.97
2022-08-17T05:55:16.618Z,76.97
2022-08-17T05:56:29.252Z,77.17
2022-08-17T05:57:17.603Z,77.17
2022-08-17T05:58:16.548Z,77.17
2022-08-17T05:59:16.524Z,77.17
2022-08-17T06:00:16.498Z,76.87
2022-08-17T06:01:16.600Z,76.93
2022-08-17T06:02:16.480Z,76.73
2022-08-17T06:03:16.505Z,76.83
2022-08-17T06:04:16.453Z,76.93
2022-08-17T06:05:16.441Z,76.93
2022-08-17T06:06:16.453Z,76.53
2022-08-17T06:07:16.468Z,76.53
2022-08-17T06:08:16.410Z,76.53
2022-08-17T06:09:18.801Z,76.53
2022-08-17T06:10:17.395Z,76.33
2022-08-17T06:11:16.352Z,76.43
2022-08-17T06:12:19.738Z,76.29
2022-08-17T06:13:16.358Z,76.09
2022-08-17T06:14:16.347Z,76.09
2022-08-17T06:15:16.336Z,76.19
2022-08-17T06:16:33.134Z,76.39
2022-08-17T06:17:17.295Z,76.59
2022-08-17T06:18:19.135Z,76.19
2022-08-17T06:19:16.275Z,75.69
2022-08-17T06:20:16.248Z,75.69
2022-08-17T06:21:16.263Z,75.46
2022-08-17T06:22:16.208Z,75.65
2022-08-17T06:23:16.210Z,75.35
2022-08-17T06:24:16.188Z,75.46
2022-08-17T06:25:16.196Z,75.16
2022-08-17T06:26:16.198Z,75.05
2022-08-17T06:27:16.154Z,74.96
2022-08-17T06:28:16.143Z,74.96
2022-08-17T06:29:18.840Z,75.26
2022-08-17T06:30:16.125Z,76.95
2022-08-17T06:31:16.092Z,78.66
2022-08-17T06:32:16.090Z,77.15
2022-08-17T06:33:16.053Z,76.06
2022-08-17T06:34:16.053Z,75.35
2022-08-17T06:35:16.052Z,75.65
2022-08-17T06:36:16.218Z,75.12
2022-08-17T06:37:16.051Z,74.52
2022-08-17T06:38:37.515Z,74.32
2022-08-17T06:39:17.035Z,75.02
2022-08-17T06:40:16.097Z,75.72
2022-08-17T06:41:16.011Z,74.58
2022-08-17T06:43:04.966Z,74.08
2022-08-17T06:43:16.963Z,73.99
2022-08-17T06:44:43.563Z,74.19
2022-08-17T06:45:16.928Z,74.19
2022-08-17T06:46:24.766Z,73.58
2022-08-17T06:47:15.990Z,73.79
2022-08-17T06:48:17.105Z,73.09
2022-08-17T06:49:16.068Z,72.95
2022-08-17T06:50:15.825Z,72.05
2022-08-17T06:51:15.829Z,72.16
2022-08-17T06:52:42.464Z,71.66
2022-08-17T06:53:16.786Z,72.35
2022-08-17T06:54:15.787Z,71.95
2022-08-17T06:55:17.866Z,71.72
2022-08-17T06:56:15.749Z,71.92
2022-08-17T06:57:15.732Z,71.72
2022-08-17T06:58:16.807Z,72.02
2022-08-17T06:59:15.710Z,71.92
2022-08-17T07:00:15.691Z,72.12
2022-08-17T07:01:15.702Z,72.32
2022-08-17T07:03:44.802Z,73.68
2022-08-17T07:04:44.773Z,73.58
2022-08-17T07:05:44.782Z,75.07
2022-08-17T07:06:44.762Z,75.18
2022-08-17T07:07:44.718Z,73.68
2022-08-17T07:08:44.689Z,76.17
2022-08-17T07:09:44.682Z,69.20
2022-08-17T07:10:44.683Z,71.89
2022-08-17T07:11:44.723Z,68.07
2022-08-17T07:12:44.648Z,69.16
2022-08-17T07:13:50.520Z,69.36
2022-08-17T07:14:45.662Z,69.66
2022-08-17T07:15:44.637Z,67.73
2022-08-17T07:16:44.585Z,68.63
2022-08-17T07:17:57.377Z,66.74
2022-08-17T07:18:45.584Z,66.14
2022-08-17T07:19:44.556Z,69.20
2022-08-17T07:20:44.562Z,68.40
2022-08-17T07:21:44.559Z,68.50
2022-08-17T07:22:57.211Z,66.31
2022-08-17T07:23:45.519Z,65.81
2022-08-17T07:24:44.539Z,67.90
2022-08-17T07:25:44.489Z,66.11
2022-08-17T07:26:44.490Z,67.20
2022-08-17T07:27:44.469Z,66.47
2022-08-17T07:28:44.432Z,65.81
2022-08-17T07:29:44.436Z,66.67
2022-08-17T07:30:47.529Z,67.27
2022-08-17T07:31:44.401Z,67.07
2022-08-17T07:32:44.406Z,64.88
2022-08-17T07:33:44.392Z,66.08
2022-08-17T07:34:44.393Z,67.37
2022-08-17T07:35:44.428Z,66.08
2022-08-17T07:36:44.336Z,66.67
2022-08-17T07:37:44.344Z,65.88
2022-08-17T07:38:44.306Z,65.48
2022-08-17T07:40:15.568Z,68.07
2022-08-17T07:40:45.333Z,65.78
2022-08-17T07:41:53.139Z,67.27
2022-08-17T07:42:46.707Z,66.84
2022-08-17T07:43:44.258Z,67.24
2022-08-17T07:44:44.237Z,65.45
2022-08-17T07:45:44.245Z,66.24
2022-08-17T07:46:44.210Z,67.14
2022-08-17T07:47:44.196Z,67.83
2022-08-17T07:48:44.171Z,65.35
2022-08-17T07:49:44.185Z,66.14
2022-08-17T07:50:49.329Z,65.64
2022-08-17T07:51:45.131Z,66.54
2022-08-17T07:52:51.931Z,68.40
2022-08-17T07:53:45.102Z,67.70
2022-08-17T07:54:44.118Z,67.00
2022-08-17T07:55:44.106Z,66.41
2022-08-17T07:56:44.077Z,66.31
2022-08-17T07:57:44.109Z,66.41
2022-08-17T07:58:44.040Z,66.81
2022-08-17T07:59:44.027Z,66.31
2022-08-17T08:00:44.017Z,66.71
2022-08-17T08:01:44.082Z,66.71
2022-08-17T08:02:43.997Z,66.81
2022-08-17T08:03:43.985Z,67.27
2022-08-17T08:04:59.649Z,66.18
2022-08-17T08:05:50.105Z,66.88
2022-08-17T08:06:44.979Z,67.18
2022-08-17T08:07:43.949Z,67.37
2022-08-17T08:08:43.917Z,66.97
2022-08-17T08:09:43.889Z,66.64
2022-08-17T08:10:45.074Z,65.85
2022-08-17T08:11:44.437Z,66.64
2022-08-17T08:12:43.861Z,66.25
2022-08-17T08:13:44.003Z,67.04
2022-08-17T08:14:43.831Z,66.51
2022-08-17T08:15:45.232Z,67.11
2022-08-17T08:16:44.796Z,65.78
2022-08-17T08:17:43.841Z,65.89
2022-08-17T08:18:55.065Z,65.78
2022-08-17T08:19:44.796Z,65.69
2022-08-17T08:20:51.804Z,66.08
2022-08-17T08:21:44.746Z,65.69
2022-08-17T08:22:43.718Z,65.89
2022-08-17T08:23:43.725Z,64.13
2022-08-17T08:24:43.722Z,65.12
2022-08-17T08:25:43.687Z,65.12
2022-08-17T08:26:43.676Z,65.42
2022-08-17T08:27:43.710Z,67.01
2022-08-17T08:28:43.638Z,65.65
2022-08-17T08:29:43.635Z,65.75
2022-08-17T08:30:43.654Z,66.05
2022-08-17T08:31:43.622Z,65.35
2022-08-17T08:32:43.603Z,65.85
2022-08-17T08:33:43.590Z,66.55
2022-08-17T08:34:59.211Z,67.34
2022-08-17T08:35:44.592Z,67.14
2022-08-17T08:37:12.921Z,68.23
2022-08-17T08:37:44.534Z,67.64
2022-08-17T08:38:43.513Z,67.04
2022-08-17T08:39:43.514Z,65.65
2022-08-17T08:40:43.510Z,65.16
2022-08-17T08:41:43.485Z,64.95
2022-08-17T08:42:43.449Z,65.16
2022-08-17T08:43:43.455Z,64.95
2022-08-17T08:45:00.435Z,65.75
2022-08-17T08:45:44.440Z,65.35
2022-08-17T08:46:43.437Z,65.65
2022-08-17T08:47:43.402Z,65.32
2022-08-17T08:48:53.141Z,65.22
2022-08-17T08:50:03.424Z,65.12
2022-08-17T08:50:44.367Z,65.02
2022-08-17T08:51:43.339Z,64.83
2022-08-17T08:52:43.332Z,64.79
2022-08-17T08:53:43.329Z,64.79
2022-08-17T08:54:43.316Z,64.30
2022-08-17T08:55:43.296Z,65.16
2022-08-17T08:56:53.993Z,65.36
2022-08-17T08:57:44.306Z,64.07
2022-08-17T08:58:43.265Z,64.96
2022-08-17T08:59:56.167Z,65.56
2022-08-17T09:00:44.223Z,64.56
2022-08-17T09:01:43.277Z,63.97
2022-08-17T09:02:43.198Z,65.06
2022-08-17T09:03:52.732Z,63.90
2022-08-17T09:05:10.349Z,65.59
2022-08-17T09:05:44.166Z,66.08
2022-08-17T09:06:43.171Z,66.18
2022-08-17T09:07:43.201Z,64.10
2022-08-17T09:08:43.115Z,64.79
2022-08-17T09:09:43.174Z,64.89
2022-08-17T09:10:43.789Z,66.58
2022-08-17T09:12:02.829Z,66.58
2022-08-17T09:12:44.077Z,65.89
2022-08-17T09:13:43.054Z,65.89
2022-08-17T09:14:43.114Z,65.99
2022-08-17T09:15:43.019Z,66.88
2022-08-17T09:16:43.030Z,66.11
2022-08-17T09:17:43.130Z,65.92
2022-08-17T09:19:02.795Z,66.31
2022-08-17T09:19:43.986Z,65.82
2022-08-17T09:20:46.639Z,66.31
2022-08-17T09:21:48.794Z,66.81
2022-08-17T09:22:42.952Z,66.05
2022-08-17T09:23:42.927Z,66.55
2022-08-17T09:24:42.934Z,67.74
2022-08-17T09:25:42.900Z,66.85
2022-08-17T09:26:42.903Z,67.64
2022-08-17T09:27:42.941Z,67.24
2022-08-17T09:28:42.870Z,67.24
2022-08-17T09:29:49.120Z,67.14
2022-08-17T09:30:42.897Z,67.24
2022-08-17T09:31:46.489Z,67.24
2022-08-17T09:32:43.880Z,68.63
2022-08-17T09:33:42.802Z,69.09
2022-08-17T09:34:43.588Z,69.20
2022-08-17T09:35:42.762Z,68.99
2022-08-17T09:36:42.764Z,69.49
2022-08-17T09:37:42.760Z,68.99
2022-08-17T09:38:42.741Z,69.49
2022-08-17T09:39:42.792Z,67.01
2022-08-17T09:40:42.704Z,66.51
2022-08-17T09:41:48.723Z,67.90
2022-08-17T09:42:43.678Z,67.80
2022-08-17T09:43:42.816Z,68.40
2022-08-17T09:44:42.646Z,66.81
2022-08-17T09:45:42.651Z,66.78
2022-08-17T09:46:42.642Z,65.09
2022-08-17T09:47:42.897Z,66.11
2022-08-17T09:48:42.607Z,66.11
2022-08-17T09:49:42.608Z,66.31
2022-08-17T09:51:03.708Z,65.92
2022-08-17T09:51:43.556Z,65.92
2022-08-17T09:52:42.566Z,65.92
2022-08-17T09:53:44.687Z,66.41
2022-08-17T09:54:42.558Z,66.31
2022-08-17T09:55:42.524Z,66.51
2022-08-17T09:56:46.253Z,66.51
2022-08-17T09:57:43.569Z,66.41
2022-08-17T09:58:42.483Z,66.51
2022-08-17T09:59:42.481Z,65.72
2022-08-17T10:00:42.443Z,66.81
2022-08-17T10:01:42.478Z,66.15
2022-08-17T10:02:42.426Z,66.64
2022-08-17T10:03:42.441Z,67.34
2022-08-17T10:04:42.389Z,68.73
2022-08-17T10:05:42.393Z,68.63
2022-08-17T10:06:42.405Z,67.34
2022-08-17T10:07:42.364Z,67.54
2022-08-17T10:08:42.346Z,68.23
2022-08-17T10:09:42.356Z,69.03
2022-08-17T10:10:42.349Z,67.83
2022-08-17T10:11:45.644Z,69.43
2022-08-17T10:12:46.365Z,68.33
2022-08-17T10:13:52.000Z,69.82
2022-08-17T10:14:44.484Z,69.53
2022-08-17T10:15:42.736Z,67.83
2022-08-17T10:16:42.239Z,67.24
2022-08-17T10:17:42.217Z,66.94
2022-08-17T10:18:42.207Z,66.15
2022-08-17T10:19:44.144Z,66.74
2022-08-17T10:20:42.187Z,66.55
2022-08-17T10:21:42.179Z,66.64
2022-08-17T10:22:42.151Z,67.04
2022-08-17T10:23:42.130Z,66.64
2022-08-17T10:25:21.453Z,67.27
2022-08-17T10:25:54.511Z,67.67
2022-08-17T10:26:56.193Z,67.47
2022-08-17T10:27:43.159Z,67.57
2022-08-17T10:28:42.073Z,67.37
2022-08-17T10:29:48.403Z,67.50
2022-08-17T10:30:43.068Z,67.80
2022-08-17T10:31:42.062Z,68.20
2022-08-17T10:32:42.026Z,68.80
2022-08-17T10:33:42.033Z,68.50
2022-08-17T10:34:42.074Z,69.59
2022-08-17T10:35:41.966Z,69.39
2022-08-17T10:36:41.977Z,69.49
2022-08-17T10:37:41.965Z,69.69
2022-08-17T10:38:41.957Z,69.20
2022-08-17T10:39:52.202Z,69.62
2022-08-17T10:40:42.924Z,69.62
2022-08-17T10:41:41.907Z,69.62
2022-08-17T10:42:41.916Z,69.92
2022-08-17T10:43:41.887Z,70.12
2022-08-17T10:44:41.870Z,70.72
2022-08-17T10:45:41.870Z,70.32
2022-08-17T10:46:41.835Z,70.52
2022-08-17T10:47:54.901Z,70.82
2022-08-17T10:48:42.839Z,71.51
2022-08-17T10:49:41.810Z,70.42
2022-08-17T10:50:41.801Z,70.82
2022-08-17T10:51:41.778Z,71.31
2022-08-17T10:52:41.763Z,71.72
2022-08-17T10:53:41.758Z,71.75
2022-08-17T10:54:41.752Z,71.95
2022-08-17T10:55:41.734Z,71.75
2022-08-17T10:56:41.722Z,71.65
2022-08-17T10:57:41.689Z,72.05
2022-08-17T10:58:41.686Z,72.05
2022-08-17T10:59:41.678Z,72.58
2022-08-17T11:00:41.711Z,72.58
2022-08-17T11:01:41.636Z,72.58
2022-08-17T11:02:41.642Z,72.58
2022-08-17T11:03:41.630Z,72.88
2022-08-17T11:04:41.608Z,73.47
2022-08-17T11:05:43.990Z,73.68
2022-08-17T11:06:41.568Z,74.67
2022-08-17T11:07:41.557Z,74.57
2022-08-17T11:08:41.545Z,74.67
2022-08-17T11:09:41.550Z,74.37
2022-08-17T11:10:41.513Z,74.71
2022-08-17T11:11:41.658Z,74.11
2022-08-17T11:12:42.391Z,74.41
2022-08-17T11:13:41.494Z,74.60
2022-08-17T11:14:41.495Z,74.84
2022-08-17T11:15:41.460Z,75.14
2022-08-17T11:16:41.473Z,75.34
2022-08-17T11:17:41.466Z,75.74
2022-08-17T11:18:41.448Z,75.74
2022-08-17T11:19:41.403Z,75.97
2022-08-17T11:20:41.403Z,76.17
2022-08-17T11:21:41.399Z,76.47
2022-08-17T11:22:41.384Z,76.27
2022-08-17T11:23:41.345Z,76.57
2022-08-17T11:24:44.665Z,76.77
2022-08-17T11:25:41.336Z,76.87
2022-08-17T11:26:41.307Z,77.07
2022-08-17T11:27:41.328Z,77.27
2022-08-17T11:28:41.286Z,77.47
2022-08-17T11:29:41.267Z,77.47
2022-08-17T11:30:41.289Z,77.77
2022-08-17T11:31:41.338Z,77.91
2022-08-17T11:32:47.250Z,77.91
2022-08-17T11:33:42.243Z,78.11
2022-08-17T11:34:41.205Z,78.20
2022-08-17T11:35:41.193Z,78.20
2022-08-17T11:36:41.174Z,78.70
2022-08-17T11:37:41.184Z,78.47
2022-08-17T11:38:41.144Z,78.47
2022-08-17T11:39:41.205Z,79.10
2022-08-17T11:40:41.136Z,78.77
2022-08-17T11:41:41.112Z,78.77
2022-08-17T11:42:41.096Z,78.86
2022-08-17T11:43:42.934Z,78.86
2022-08-17T11:44:41.115Z,79.06
2022-08-17T11:45:41.075Z,78.86
2022-08-17T11:46:41.048Z,79.36
2022-08-17T11:47:41.094Z,78.86
2022-08-17T11:48:41.018Z,79.27
2022-08-17T11:49:41.011Z,78.86
2022-08-17T11:50:41.009Z,78.53
2022-08-17T11:51:40.990Z,78.73
2022-08-17T11:52:40.985Z,78.53
2022-08-17T11:53:40.949Z,78.03
2022-08-17T11:54:40.951Z,78.19
2022-08-17T11:55:44.807Z,78.19
2022-08-17T11:56:40.954Z,77.80
2022-08-17T11:57:40.899Z,77.69
2022-08-17T11:58:40.913Z,77.86
2022-08-17T11:59:40.897Z,77.06
2022-08-17T12:00:40.875Z,77.06
2022-08-17T12:01:40.867Z,76.76
2022-08-17T12:02:44.395Z,76.86
2022-08-17T12:03:41.818Z,76.46
2022-08-17T12:04:40.855Z,76.43
2022-08-17T12:05:40.794Z,75.89
2022-08-17T12:06:40.843Z,74.90
2022-08-17T12:07:40.764Z,74.60
2022-08-17T12:08:40.816Z,75.13
2022-08-17T12:09:40.744Z,75.33
2022-08-17T12:10:40.724Z,75.69
2022-08-17T12:11:58.789Z,75.49
2022-08-17T12:12:41.697Z,75.53
2022-08-17T12:13:40.692Z,76.46
2022-08-17T12:15:07.897Z,76.03
2022-08-17T12:15:41.668Z,75.96
2022-08-17T12:16:40.687Z,76.56
2022-08-17T12:17:43.051Z,77.39
2022-08-17T12:18:40.631Z,77.99
2022-08-17T12:19:40.599Z,77.80
2022-08-17T12:20:40.607Z,77.36
2022-08-17T12:21:40.589Z,76.86
2022-08-17T12:22:40.573Z,77.00
2022-08-17T12:23:40.574Z,77.09
2022-08-17T12:24:40.541Z,77.20
2022-08-17T12:25:40.524Z,77.46
2022-08-17T12:26:40.539Z,76.76
2022-08-17T12:27:53.020Z,77.16
2022-08-17T12:28:41.499Z,77.76
2022-08-17T12:29:40.475Z,77.36
2022-08-17T12:30:40.471Z,76.96
2022-08-17T12:31:40.491Z,76.92
2022-08-17T12:32:40.455Z,75.99
2022-08-17T12:33:40.416Z,75.99
2022-08-17T12:34:40.427Z,74.96
2022-08-17T12:35:40.400Z,75.06
2022-08-17T12:36:40.385Z,74.43
2022-08-17T12:37:40.394Z,73.69
2022-08-17T12:38:40.359Z,72.86
2022-08-17T12:39:40.391Z,72.07
2022-08-17T12:40:40.338Z,72.27
2022-08-17T12:41:40.310Z,73.10
2022-08-17T12:42:40.319Z,72.71
2022-08-17T12:43:40.289Z,72.60
2022-08-17T12:44:49.773Z,72.41
2022-08-17T12:45:41.264Z,72.80
2022-08-17T12:46:48.961Z,73.24
2022-08-17T12:47:40.252Z,73.93
2022-08-17T12:48:40.322Z,74.76
2022-08-17T12:49:41.228Z,75.16
2022-08-17T12:50:40.231Z,74.86
2022-08-17T12:51:40.343Z,74.63
2022-08-17T12:52:40.339Z,74.13
2022-08-17T12:53:40.203Z,74.63
2022-08-17T12:54:40.290Z,74.29
2022-08-17T12:55:40.173Z,73.50